Terminal Aerodrome Forecast
Issued by NWS

Home | Current Version | Previous Version | Text Only | Print | Product List | Glossary On
Versions: 1 2 3 4 5 6 7 8 9 10 11 12 13 14 15 16 17
170
FTUS45 KREV 231126
TAFMMH
TAF
KMMH 231126Z 2312/2412 29010KT 1/2SM SN OVC005
     FM231500 29008KT 3SM -SHSN SCT010 OVC020
     FM231800 28010KT 5SM -SHSN SCT015 BKN030
     FM240700 26005KT P6SM VCSH SCT030 BKN050=

USA.gov is the U.S. government's official web portal to all federal, state and local government web resources and services.